createdAt,value
2024-02-29T00:00:19.195Z,4.40
2024-02-29T00:02:47.037Z,4.40
2024-02-29T00:05:16.271Z,4.40
2024-02-29T00:07:44.120Z,4.30
2024-02-29T00:10:12.114Z,4.30
2024-02-29T00:12:41.170Z,4.50
2024-02-29T00:15:09.825Z,4.70
2024-02-29T00:17:37.758Z,4.80
2024-02-29T00:20:10.089Z,4.80
2024-02-29T00:22:39.623Z,4.70
2024-02-29T00:25:08.396Z,4.50
2024-02-29T00:27:36.273Z,4.40
2024-02-29T00:30:05.306Z,4.30
2024-02-29T00:32:33.194Z,4.20
2024-02-29T00:35:01.084Z,4.20
2024-02-29T00:37:29.792Z,4.20
2024-02-29T00:39:59.590Z,4.10
2024-02-29T00:42:27.540Z,4.00
2024-02-29T00:44:55.432Z,3.80
2024-02-29T00:47:23.326Z,3.70
2024-02-29T00:49:51.184Z,3.70
2024-02-29T00:52:19.163Z,3.60
2024-02-29T00:54:47.078Z,3.60
2024-02-29T00:57:16.263Z,3.50
2024-02-29T00:59:44.106Z,3.40
2024-02-29T01:02:11.963Z,3.50
2024-02-29T01:04:39.978Z,3.70
2024-02-29T01:07:07.890Z,3.70
2024-02-29T01:09:35.796Z,3.90
2024-02-29T01:12:03.630Z,4.00
2024-02-29T01:14:32.799Z,4.10
2024-02-29T01:17:00.631Z,4.10
2024-02-29T01:19:28.481Z,3.90
2024-02-29T01:21:56.501Z,3.70
2024-02-29T01:24:25.771Z,3.70
2024-02-29T01:26:53.635Z,3.70
2024-02-29T01:29:21.638Z,3.70
2024-02-29T01:31:50.958Z,3.80
2024-02-29T01:34:20.696Z,3.60
2024-02-29T01:36:48.594Z,3.50
2024-02-29T01:39:16.492Z,3.50
2024-02-29T01:41:44.362Z,3.50
2024-02-29T01:44:12.278Z,3.50
2024-02-29T01:46:40.240Z,3.40
2024-02-29T01:49:11.223Z,3.50
2024-02-29T01:51:39.252Z,3.50
2024-02-29T01:54:07.262Z,3.40
2024-02-29T01:56:35.717Z,3.40
2024-02-29T01:59:05.419Z,3.40
2024-02-29T02:01:34.367Z,3.30
2024-02-29T02:04:03.069Z,3.30
2024-02-29T02:06:32.403Z,3.20
2024-02-29T02:09:00.279Z,3.10
2024-02-29T02:11:28.309Z,3.00
2024-02-29T02:13:56.970Z,3.00
2024-02-29T02:16:24.910Z,2.90
2024-02-29T02:18:52.823Z,2.80
2024-02-29T02:21:22.070Z,2.70
2024-02-29T02:23:49.967Z,2.60
2024-02-29T02:26:17.812Z,2.70
2024-02-29T02:28:45.651Z,2.60
2024-02-29T02:31:13.654Z,2.60
2024-02-29T02:33:41.574Z,2.50
2024-02-29T02:36:09.585Z,2.50
2024-02-29T02:38:38.754Z,2.50
2024-02-29T02:41:06.645Z,2.60
2024-02-29T02:43:34.474Z,2.70
2024-02-29T02:46:02.394Z,2.80
2024-02-29T02:48:30.269Z,3.10
2024-02-29T02:50:58.133Z,3.10
2024-02-29T02:53:25.988Z,3.20
2024-02-29T02:55:55.167Z,3.10
2024-02-29T02:58:22.994Z,3.10
2024-02-29T03:00:50.901Z,2.90
2024-02-29T03:03:19.042Z,3.00
2024-02-29T03:05:46.906Z,2.90
2024-02-29T03:08:14.791Z,2.90
2024-02-29T03:10:42.646Z,2.90
2024-02-29T03:13:11.874Z,2.90
2024-02-29T03:15:41.385Z,2.80
2024-02-29T03:18:09.766Z,2.80
2024-02-29T03:20:37.682Z,2.60
2024-02-29T03:23:07.484Z,2.70
2024-02-29T03:25:35.354Z,2.70
2024-02-29T03:28:03.751Z,2.70
2024-02-29T03:30:33.064Z,2.70
2024-02-29T03:33:00.968Z,2.70
2024-02-29T03:35:28.877Z,2.70
2024-02-29T03:37:56.796Z,2.70
2024-02-29T03:40:24.725Z,2.70
2024-02-29T03:42:52.593Z,2.90
2024-02-29T03:45:21.084Z,2.90
2024-02-29T03:47:50.685Z,2.90
2024-02-29T03:50:18.545Z,2.80
2024-02-29T03:52:46.357Z,3.00
2024-02-29T03:55:14.488Z,3.00
2024-02-29T03:57:42.440Z,2.90
2024-02-29T04:00:12.957Z,2.90
2024-02-29T04:02:41.655Z,3.00
2024-02-29T04:05:11.234Z,3.20
2024-02-29T04:07:39.494Z,3.40
2024-02-29T04:10:07.922Z,3.50
2024-02-29T04:12:35.973Z,3.40
2024-02-29T04:15:03.892Z,3.40
2024-02-29T04:17:34.109Z,3.20
2024-02-29T04:20:02.124Z,3.10
2024-02-29T04:22:31.328Z,3.00
2024-02-29T04:24:59.196Z,3.00
2024-02-29T04:27:27.106Z,3.00
2024-02-29T04:29:54.959Z,3.00
2024-02-29T04:32:22.819Z,3.00
2024-02-29T04:34:50.691Z,3.00
2024-02-29T04:37:18.598Z,3.10
2024-02-29T04:39:47.825Z,3.00
2024-02-29T04:42:15.725Z,3.10
2024-02-29T04:44:43.571Z,3.10
2024-02-29T04:47:11.605Z,3.10
2024-02-29T04:49:39.471Z,3.20
2024-02-29T04:52:07.449Z,3.20
2024-02-29T04:54:35.345Z,3.20
2024-02-29T04:57:04.641Z,3.20
2024-02-29T04:59:32.798Z,3.20
2024-02-29T05:02:00.732Z,3.20
2024-02-29T05:04:29.947Z,3.20
2024-02-29T05:06:57.795Z,3.40
2024-02-29T05:09:25.820Z,3.40
2024-02-29T05:11:54.900Z,3.50
2024-02-29T05:14:24.479Z,3.50
2024-02-29T05:16:52.304Z,3.60
2024-02-29T05:19:20.196Z,3.60
2024-02-29T05:21:48.259Z,3.60
2024-02-29T05:24:16.289Z,3.60
2024-02-29T05:26:44.384Z,3.60
2024-02-29T05:29:12.311Z,3.50
2024-02-29T05:31:41.481Z,3.50
2024-02-29T05:34:10.144Z,3.50
2024-02-29T05:36:38.114Z,3.50
2024-02-29T05:39:06.521Z,3.50
2024-02-29T05:41:34.372Z,3.50
2024-02-29T05:44:02.254Z,3.50
2024-02-29T05:46:30.104Z,3.50
2024-02-29T05:48:59.630Z,3.60
2024-02-29T05:51:27.863Z,3.80
2024-02-29T05:53:56.042Z,3.90
2024-02-29T05:56:24.026Z,3.90
2024-02-29T05:58:51.919Z,3.90
2024-02-29T06:01:20.538Z,3.80
2024-02-29T06:03:48.527Z,3.80
2024-02-29T06:06:18.636Z,4.10
2024-02-29T06:08:46.568Z,3.90
2024-02-29T06:11:15.701Z,3.80
2024-02-29T06:13:44.335Z,3.60
2024-02-29T06:16:14.285Z,3.50
2024-02-29T06:18:43.285Z,3.40
2024-02-29T06:21:11.231Z,3.40
2024-02-29T06:23:40.396Z,3.30
2024-02-29T06:26:08.258Z,3.30
2024-02-29T06:28:37.025Z,3.40
2024-02-29T06:31:05.159Z,3.40
2024-02-29T06:33:33.182Z,3.40
2024-02-29T06:36:01.342Z,3.30
2024-02-29T06:38:29.216Z,3.30
2024-02-29T06:40:58.435Z,3.40
2024-02-29T06:43:26.371Z,3.40
2024-02-29T06:45:54.270Z,3.50
2024-02-29T06:48:22.147Z,3.40
2024-02-29T06:50:50.742Z,3.40
2024-02-29T06:53:18.583Z,3.50
2024-02-29T06:55:46.423Z,3.40
2024-02-29T06:58:16.339Z,3.50
2024-02-29T07:00:44.807Z,3.40
2024-02-29T07:03:12.725Z,3.40
2024-02-29T07:05:40.599Z,3.40
2024-02-29T07:08:10.682Z,3.40
2024-02-29T07:10:38.530Z,3.40
2024-02-29T07:13:06.604Z,3.50
2024-02-29T07:15:35.964Z,3.50
2024-02-29T07:18:03.848Z,3.60
2024-02-29T07:20:31.759Z,3.90
2024-02-29T07:23:02.036Z,4.10
2024-02-29T07:25:29.998Z,4.20
2024-02-29T07:27:59.674Z,4.30
2024-02-29T07:30:28.276Z,4.30
2024-02-29T07:32:59.060Z,4.30
2024-02-29T07:35:27.110Z,4.40
2024-02-29T07:37:55.309Z,4.50
2024-02-29T07:40:23.275Z,4.70
2024-02-29T07:42:51.287Z,4.80
2024-02-29T07:45:21.029Z,5.00
2024-02-29T07:47:50.241Z,5.10
2024-02-29T07:50:20.611Z,5.40
2024-02-29T07:52:48.531Z,5.50
2024-02-29T07:55:17.875Z,5.60
2024-02-29T07:57:46.725Z,5.70
2024-02-29T08:00:15.083Z,5.80
2024-02-29T08:02:44.493Z,5.80
2024-02-29T08:05:12.590Z,5.90
2024-02-29T08:07:41.873Z,5.90
2024-02-29T08:10:14.694Z,6.00
2024-02-29T08:12:42.637Z,6.00
2024-02-29T08:15:11.101Z,6.00
2024-02-29T08:17:39.621Z,6.00
2024-02-29T08:20:10.835Z,6.20
2024-02-29T08:22:40.218Z,6.20
2024-02-29T08:25:10.733Z,6.20
2024-02-29T08:27:38.926Z,6.10
2024-02-29T08:30:07.159Z,6.20
2024-02-29T08:32:35.043Z,6.20
2024-02-29T08:35:03.721Z,6.30
2024-02-29T08:37:31.564Z,6.30
2024-02-29T08:39:59.414Z,6.40
2024-02-29T08:42:28.590Z,6.40
2024-02-29T08:44:56.663Z,6.40
2024-02-29T08:47:24.523Z,6.40
2024-02-29T08:49:53.444Z,6.40
2024-02-29T08:52:21.602Z,6.50
2024-02-29T08:54:49.581Z,6.50
2024-02-29T08:57:17.707Z,6.60
2024-02-29T08:59:46.919Z,6.70
2024-02-29T09:02:15.072Z,6.80
2024-02-29T09:04:42.923Z,6.90
2024-02-29T09:07:10.788Z,7.00
2024-02-29T09:09:42.806Z,7.20
2024-02-29T09:12:11.682Z,7.30
2024-02-29T09:14:39.597Z,7.40
2024-02-29T09:17:08.768Z,7.70
2024-02-29T09:19:36.732Z,7.80
2024-02-29T09:22:05.345Z,7.80
2024-02-29T09:24:33.218Z,7.90
2024-02-29T09:27:01.147Z,7.80
2024-02-29T09:29:31.938Z,8.00
2024-02-29T09:32:01.928Z,8.00
2024-02-29T09:34:35.513Z,8.30
2024-02-29T09:37:05.870Z,8.20
2024-02-29T09:39:34.172Z,8.40
2024-02-29T09:42:12.622Z,8.50
2024-02-29T09:44:43.503Z,8.50
2024-02-29T09:47:13.332Z,8.60
2024-02-29T09:49:44.811Z,8.60
2024-02-29T09:52:14.561Z,8.60
2024-02-29T09:54:42.955Z,8.80
2024-02-29T09:57:13.325Z,8.80
2024-02-29T09:59:44.197Z,8.80
2024-02-29T10:02:16.463Z,9.00
2024-02-29T10:04:47.385Z,9.10
2024-02-29T10:07:15.788Z,9.10
2024-02-29T10:09:45.197Z,9.20
2024-02-29T10:12:17.826Z,9.20
2024-02-29T10:14:46.826Z,9.20
2024-02-29T10:17:14.690Z,9.10
2024-02-29T10:19:42.578Z,9.20
2024-02-29T10:22:11.863Z,9.30
2024-02-29T10:24:39.775Z,9.30
2024-02-29T10:27:08.245Z,9.50
2024-02-29T10:29:36.188Z,9.50
2024-02-29T10:32:04.060Z,9.60
2024-02-29T10:34:31.914Z,9.80
2024-02-29T10:36:59.817Z,9.90
2024-02-29T10:39:28.977Z,9.90
2024-02-29T10:41:59.689Z,10.10
2024-02-29T10:44:32.486Z,10.10
2024-02-29T10:47:04.677Z,10.20
2024-02-29T10:49:37.429Z,10.30
2024-02-29T10:52:10.960Z,10.50
2024-02-29T10:54:48.416Z,11.10
2024-02-29T10:57:17.223Z,11.60
2024-02-29T10:59:51.953Z,11.80
2024-02-29T11:02:21.591Z,12.40
2024-02-29T11:04:49.589Z,13.00
2024-02-29T11:07:18.457Z,13.80
2024-02-29T11:09:48.429Z,14.50
2024-02-29T11:12:19.097Z,14.90
2024-02-29T11:14:49.881Z,15.50
2024-02-29T11:17:18.198Z,15.50
2024-02-29T11:19:51.993Z,16.50
2024-02-29T11:22:33.527Z,16.80
2024-02-29T11:25:10.000Z,17.10
2024-02-29T11:27:38.283Z,17.40
2024-02-29T11:30:07.353Z,17.40
2024-02-29T11:32:35.983Z,17.60
2024-02-29T11:35:05.406Z,17.50
2024-02-29T11:37:36.437Z,17.50
2024-02-29T11:40:08.570Z,17.60
2024-02-29T11:42:38.805Z,17.40
2024-02-29T11:45:08.968Z,17.50
2024-02-29T11:47:36.953Z,17.70
2024-02-29T11:50:07.137Z,17.70
2024-02-29T11:52:35.137Z,17.40
2024-02-29T11:55:04.392Z,16.70
2024-02-29T11:57:33.674Z,16.80
2024-02-29T12:00:01.520Z,16.70
2024-02-29T12:02:29.387Z,16.50
2024-02-29T12:04:59.340Z,16.40
2024-02-29T12:07:27.483Z,16.60
2024-02-29T12:09:55.912Z,16.40
2024-02-29T12:12:24.037Z,16.50
2024-02-29T12:14:53.453Z,16.50
2024-02-29T12:17:21.415Z,16.30
2024-02-29T12:19:49.425Z,16.10
2024-02-29T12:22:17.679Z,16.20
2024-02-29T12:24:46.204Z,16.00
2024-02-29T12:27:14.334Z,15.80
2024-02-29T12:29:42.980Z,15.60
2024-02-29T12:32:12.783Z,15.90
2024-02-29T12:34:44.726Z,15.50
2024-02-29T12:37:13.169Z,15.10
2024-02-29T12:39:41.383Z,14.90
2024-02-29T12:42:09.743Z,14.70
2024-02-29T12:44:39.507Z,14.50
2024-02-29T12:47:07.653Z,14.70
2024-02-29T12:49:36.857Z,14.50
2024-02-29T12:52:05.009Z,14.30
2024-02-29T12:54:33.308Z,14.40
2024-02-29T12:57:01.691Z,14.20
2024-02-29T12:59:29.537Z,14.10
2024-02-29T13:01:58.156Z,14.00
2024-02-29T13:06:56.175Z,13.80
2024-02-29T13:09:24.106Z,13.90
2024-02-29T13:11:52.060Z,14.00
2024-02-29T13:14:19.926Z,14.10
2024-02-29T13:16:47.936Z,14.10
2024-02-29T13:19:16.340Z,13.90
2024-02-29T13:21:44.714Z,13.90
2024-02-29T13:24:14.232Z,13.80
2024-02-29T13:26:42.244Z,13.60
2024-02-29T13:29:10.157Z,13.30
2024-02-29T13:31:38.016Z,13.20
2024-02-29T13:34:05.963Z,13.10
2024-02-29T13:36:34.027Z,13.00
2024-02-29T13:39:01.989Z,13.10
2024-02-29T13:41:31.163Z,13.00
2024-02-29T13:43:59.074Z,13.00
2024-02-29T13:46:27.079Z,13.00
2024-02-29T13:48:54.960Z,13.10
2024-02-29T13:51:42.768Z,12.90
2024-02-29T13:54:10.626Z,12.80
2024-02-29T13:56:39.832Z,12.70
2024-02-29T13:59:07.720Z,12.70
2024-02-29T14:01:35.655Z,12.70
2024-02-29T14:04:03.573Z,12.70
2024-02-29T14:06:31.920Z,12.70
2024-02-29T14:09:00.099Z,12.80
2024-02-29T14:11:29.226Z,12.60
2024-02-29T14:13:58.540Z,12.60
2024-02-29T14:16:26.541Z,12.60
2024-02-29T14:18:56.910Z,12.60
2024-02-29T14:21:25.851Z,12.50
2024-02-29T14:23:54.025Z,12.40
2024-02-29T14:26:23.312Z,12.50
2024-02-29T14:28:52.203Z,12.50
2024-02-29T14:31:21.535Z,12.30
2024-02-29T14:33:49.500Z,12.30
2024-02-29T14:36:17.520Z,12.30
2024-02-29T14:38:45.489Z,12.20
2024-02-29T14:41:13.341Z,12.30
2024-02-29T14:43:41.211Z,12.20
2024-02-29T14:46:09.162Z,12.20
2024-02-29T14:48:38.429Z,12.20
2024-02-29T14:51:06.519Z,12.20
2024-02-29T14:53:34.633Z,12.10
2024-02-29T14:56:03.125Z,12.10
2024-02-29T14:58:31.117Z,12.10
2024-02-29T15:00:59.097Z,12.00
2024-02-29T15:03:28.319Z,11.90
2024-02-29T15:05:57.541Z,11.80
2024-02-29T15:08:25.490Z,11.90
2024-02-29T15:10:53.706Z,11.90
2024-02-29T15:13:21.736Z,11.90
2024-02-29T15:15:49.797Z,11.90
2024-02-29T15:18:18.126Z,11.90
2024-02-29T15:20:46.117Z,11.90
2024-02-29T15:23:15.432Z,12.00
2024-02-29T15:25:48.169Z,11.90
2024-02-29T15:28:16.440Z,11.90
2024-02-29T15:30:44.572Z,11.90
2024-02-29T15:33:12.761Z,11.90
2024-02-29T15:35:40.705Z,11.80
2024-02-29T15:38:08.841Z,11.70
2024-02-29T15:40:38.076Z,11.70
2024-02-29T15:43:05.999Z,11.70
2024-02-29T15:45:33.874Z,11.70
2024-02-29T15:48:01.818Z,11.70
2024-02-29T15:50:29.687Z,11.70
2024-02-29T15:52:57.524Z,11.70
2024-02-29T15:55:25.462Z,11.60
2024-02-29T15:57:54.988Z,11.50
2024-02-29T16:00:24.199Z,11.50
2024-02-29T16:02:52.433Z,11.40
2024-02-29T16:05:20.443Z,11.40
2024-02-29T16:07:56.017Z,11.40
2024-02-29T16:10:26.484Z,11.30
2024-02-29T16:12:56.218Z,11.30
2024-02-29T16:15:24.218Z,11.30
2024-02-29T16:17:53.305Z,11.20
2024-02-29T16:20:21.433Z,11.10
2024-02-29T16:22:52.237Z,11.00
2024-02-29T16:25:21.907Z,11.00
2024-02-29T16:27:51.351Z,10.90
2024-02-29T16:30:20.912Z,10.90
2024-02-29T16:32:48.791Z,10.90
2024-02-29T16:35:16.727Z,10.90
2024-02-29T16:37:45.774Z,10.80
2024-02-29T16:40:14.195Z,10.70
2024-02-29T16:42:42.427Z,10.70
2024-02-29T16:45:10.867Z,10.70
2024-02-29T16:47:40.157Z,10.50
2024-02-29T16:50:08.797Z,10.50
2024-02-29T16:52:36.668Z,10.40
2024-02-29T16:55:05.122Z,10.40
2024-02-29T16:57:33.108Z,10.30
2024-02-29T17:00:00.991Z,10.20
2024-02-29T17:02:28.892Z,10.20
2024-02-29T17:04:58.194Z,10.30
2024-02-29T17:07:26.433Z,10.40
2024-02-29T17:09:56.528Z,10.10
2024-02-29T17:12:24.377Z,9.90
2024-02-29T17:14:52.202Z,9.70
2024-02-29T17:17:20.607Z,9.70
2024-02-29T17:19:48.499Z,9.60
2024-02-29T17:22:17.777Z,9.40
2024-02-29T17:24:46.621Z,9.40
2024-02-29T17:27:16.392Z,9.40
2024-02-29T17:29:44.540Z,9.30
2024-02-29T17:32:12.415Z,9.20
2024-02-29T17:34:40.586Z,9.10
2024-02-29T17:37:09.254Z,9.10
2024-02-29T17:39:38.517Z,8.90
2024-02-29T17:42:07.500Z,8.90
2024-02-29T17:44:35.450Z,8.80
2024-02-29T17:47:04.407Z,8.70
2024-02-29T17:49:33.112Z,8.70
2024-02-29T17:52:01.126Z,8.70
2024-02-29T17:54:29.009Z,8.60
2024-02-29T17:56:58.281Z,8.60
2024-02-29T17:59:26.389Z,8.40
2024-02-29T18:01:54.477Z,8.30
2024-02-29T18:04:22.460Z,8.30
2024-02-29T18:06:52.314Z,8.30
2024-02-29T18:09:20.383Z,8.20
2024-02-29T18:11:48.227Z,8.10
2024-02-29T18:14:19.264Z,8.00
2024-02-29T18:16:47.244Z,8.00
2024-02-29T18:19:15.668Z,8.00
2024-02-29T18:21:44.950Z,8.00
2024-02-29T18:24:13.213Z,7.90
2024-02-29T18:26:41.029Z,7.80
2024-02-29T18:29:08.895Z,7.70
2024-02-29T18:31:38.087Z,7.80
2024-02-29T18:34:05.964Z,7.80
2024-02-29T18:36:34.379Z,7.70
2024-02-29T18:39:02.230Z,7.60
2024-02-29T18:41:30.947Z,7.60
2024-02-29T18:44:00.058Z,7.60
2024-02-29T18:46:35.930Z,7.60
2024-02-29T18:49:05.794Z,7.50
2024-02-29T18:51:33.780Z,7.30
2024-02-29T18:54:01.619Z,7.20
2024-02-29T18:56:30.533Z,7.30
2024-02-29T18:58:58.465Z,7.20
2024-02-29T19:01:26.410Z,7.10
2024-02-29T19:03:54.350Z,7.20
2024-02-29T19:06:23.559Z,7.10
2024-02-29T19:08:51.571Z,7.00
2024-02-29T19:11:19.494Z,6.90
2024-02-29T19:13:47.379Z,6.80
2024-02-29T19:16:15.558Z,6.80
2024-02-29T19:18:43.444Z,6.70
2024-02-29T19:21:11.328Z,6.70
2024-02-29T19:23:40.927Z,6.70
2024-02-29T19:26:08.834Z,6.80
2024-02-29T19:28:39.044Z,6.80
2024-02-29T19:31:07.813Z,6.70
2024-02-29T19:33:37.082Z,6.60
2024-02-29T19:36:05.474Z,6.60
2024-02-29T19:38:33.569Z,6.60
2024-02-29T19:41:03.624Z,6.50
2024-02-29T19:43:31.525Z,6.50
2024-02-29T19:45:59.517Z,6.60
2024-02-29T19:48:27.397Z,6.60
2024-02-29T19:50:56.466Z,6.50
2024-02-29T19:53:24.317Z,6.40
2024-02-29T19:55:52.186Z,6.40
2024-02-29T19:58:21.448Z,6.40
2024-02-29T20:00:49.987Z,6.40
2024-02-29T20:03:17.931Z,6.40
2024-02-29T20:05:45.960Z,6.40
2024-02-29T20:08:14.345Z,6.30
2024-02-29T20:10:42.248Z,6.30
2024-02-29T20:13:10.121Z,6.40
2024-02-29T20:15:39.981Z,6.30
2024-02-29T20:18:08.148Z,6.30
2024-02-29T20:20:36.010Z,6.30
2024-02-29T20:23:04.203Z,6.30
2024-02-29T20:25:32.104Z,6.30
2024-02-29T20:28:00.262Z,6.30
2024-02-29T20:30:28.897Z,6.50
2024-02-29T20:32:58.153Z,6.40
2024-02-29T20:35:26.076Z,6.20
2024-02-29T20:37:55.045Z,6.10
2024-02-29T20:40:25.098Z,6.20
2024-02-29T20:42:53.035Z,6.10
2024-02-29T20:45:21.403Z,6.10
2024-02-29T20:47:49.372Z,6.00
2024-02-29T20:50:18.980Z,6.10
2024-02-29T20:52:47.807Z,6.00
2024-02-29T20:55:16.980Z,6.00
2024-02-29T20:57:45.490Z,5.90
2024-02-29T21:00:14.535Z,6.00
2024-02-29T21:02:42.669Z,6.10
2024-02-29T21:05:10.652Z,6.00
2024-02-29T21:07:42.223Z,6.00
2024-02-29T21:10:12.435Z,6.10
2024-02-29T21:12:40.377Z,6.10
2024-02-29T21:15:09.280Z,6.00
2024-02-29T21:17:37.463Z,6.00
2024-02-29T21:20:06.988Z,6.10
2024-02-29T21:22:36.164Z,5.90
2024-02-29T21:25:06.164Z,5.80
2024-02-29T21:27:34.030Z,5.90
2024-02-29T21:30:06.522Z,5.90
2024-02-29T21:32:34.840Z,5.90
2024-02-29T21:35:03.936Z,5.90
2024-02-29T21:37:32.031Z,5.80
2024-02-29T21:40:00.053Z,5.70
2024-02-29T21:42:29.391Z,5.70
2024-02-29T21:44:57.565Z,5.70
2024-02-29T21:47:25.742Z,5.70
2024-02-29T21:49:53.787Z,5.60
2024-02-29T21:52:22.621Z,5.50
2024-02-29T21:54:50.665Z,5.60
2024-02-29T21:57:18.829Z,5.60
2024-02-29T21:59:48.197Z,5.60
2024-02-29T22:02:16.330Z,5.60
2024-02-29T22:04:44.278Z,5.70
2024-02-29T22:07:12.397Z,5.70
2024-02-29T22:09:40.746Z,5.70
2024-02-29T22:12:09.694Z,5.70
2024-02-29T22:14:37.637Z,5.80
2024-02-29T22:17:06.941Z,5.90
2024-02-29T22:19:34.825Z,5.80
2024-02-29T22:22:02.741Z,5.80
2024-02-29T22:24:30.607Z,5.70
2024-02-29T22:26:58.862Z,5.80
2024-02-29T22:29:26.740Z,5.90
2024-02-29T22:31:54.595Z,5.90
2024-02-29T22:34:23.880Z,5.90
2024-02-29T22:36:51.885Z,5.80
2024-02-29T22:39:20.293Z,5.90
2024-02-29T22:41:53.097Z,5.90
2024-02-29T22:44:25.413Z,5.90
2024-02-29T22:46:53.369Z,5.80
2024-02-29T22:49:21.238Z,5.90
2024-02-29T22:51:50.561Z,5.80
2024-02-29T22:54:19.068Z,5.80
2024-02-29T22:56:46.959Z,5.80
2024-02-29T22:59:14.853Z,5.70
2024-02-29T23:01:46.546Z,5.90
2024-02-29T23:04:14.976Z,5.90
2024-02-29T23:06:43.154Z,5.80
2024-02-29T23:09:12.734Z,5.80
2024-02-29T23:11:41.219Z,6.00
2024-02-29T23:14:09.112Z,6.00
2024-02-29T23:16:37.115Z,6.10
2024-02-29T23:19:05.005Z,6.10
2024-02-29T23:21:32.857Z,6.10
2024-02-29T23:24:00.691Z,5.80
2024-02-29T23:26:29.830Z,5.80
2024-02-29T23:28:57.815Z,5.70
2024-02-29T23:31:25.735Z,5.60
2024-02-29T23:33:54.127Z,5.80
2024-02-29T23:36:22.047Z,5.80
2024-02-29T23:38:49.876Z,5.60
2024-02-29T23:41:17.726Z,5.50
2024-02-29T23:43:46.876Z,5.50
2024-02-29T23:46:14.729Z,5.40
2024-02-29T23:48:42.528Z,5.40
2024-02-29T23:51:10.357Z,5.60
2024-02-29T23:53:38.163Z,5.60
2024-02-29T23:56:06.798Z,5.70
2024-02-29T23:58:34.901Z,5.70
